createdAt,value
2019-01-08T00:00:12.530Z,38.67
2019-01-08T00:00:48.019Z,38.30
2019-01-08T00:01:23.660Z,41.37
2019-01-08T00:01:59.358Z,40.03
2019-01-08T00:02:34.783Z,38.40
2019-01-08T00:03:10.190Z,38.87
2019-01-08T00:03:45.584Z,38.10
2019-01-08T00:04:20.969Z,38.53
2019-01-08T00:04:56.415Z,40.40
2019-01-08T00:05:32.190Z,38.00
2019-01-08T00:06:07.962Z,38.97
2019-01-08T00:06:43.316Z,39.70
2019-01-08T00:07:18.742Z,40.80
2019-01-08T00:07:54.229Z,41.10
2019-01-08T00:08:29.648Z,39.20
2019-01-08T00:09:06.037Z,38.83
2019-01-08T00:09:41.467Z,39.53
2019-01-08T00:10:16.871Z,40.23
2019-01-08T00:10:52.313Z,38.30
2019-01-08T00:11:27.821Z,40.83
2019-01-08T00:12:03.516Z,42.23
2019-01-08T00:12:38.929Z,38.70
2019-01-08T00:13:14.342Z,38.83
2019-01-08T00:13:50.098Z,40.40
2019-01-08T00:14:25.773Z,36.73
2019-01-08T00:15:01.245Z,39.47
2019-01-08T00:15:36.825Z,42.27
2019-01-08T00:16:12.799Z,38.37
2019-01-08T00:16:48.200Z,39.23
2019-01-08T00:17:23.929Z,40.57
2019-01-08T00:17:59.338Z,40.10
2019-01-08T00:18:34.999Z,38.17
2019-01-08T00:19:10.728Z,39.57
2019-01-08T00:19:46.116Z,39.17
2019-01-08T00:20:21.767Z,41.33
2019-01-08T00:20:57.578Z,37.83
2019-01-08T00:21:33.255Z,38.33
2019-01-08T00:22:08.736Z,38.77
2019-01-08T00:22:44.134Z,39.77
2019-01-08T00:23:19.546Z,39.23
2019-01-08T00:23:55.039Z,40.67
2019-01-08T00:24:30.474Z,37.97
2019-01-08T00:25:06.496Z,38.23
2019-01-08T00:25:42.207Z,36.90
2019-01-08T00:26:17.600Z,34.37
2019-01-08T00:26:53.389Z,36.07
2019-01-08T00:27:28.819Z,35.50
2019-01-08T00:28:04.225Z,34.47
2019-01-08T00:28:43.429Z,35.40
2019-01-08T00:29:17.245Z,36.23
2019-01-08T00:29:52.729Z,35.50
2019-01-08T00:30:28.131Z,36.77
2019-01-08T00:31:03.944Z,34.87
2019-01-08T00:31:39.612Z,35.17
2019-01-08T00:32:15.430Z,35.60
2019-01-08T00:32:50.853Z,34.37
2019-01-08T00:33:26.557Z,36.83
2019-01-08T00:34:02.004Z,36.13
2019-01-08T00:34:37.394Z,36.43
2019-01-08T00:35:12.783Z,33.77
2019-01-08T00:35:48.209Z,30.57
2019-01-08T00:36:23.912Z,33.27
2019-01-08T00:36:59.322Z,33.30
2019-01-08T00:37:34.828Z,33.00
2019-01-08T00:38:10.266Z,32.77
2019-01-08T00:38:45.680Z,31.40
2019-01-08T00:39:21.081Z,32.47
2019-01-08T00:39:56.826Z,30.47
2019-01-08T00:40:32.239Z,31.57
2019-01-08T00:41:07.750Z,33.07
2019-01-08T00:41:43.162Z,34.53
2019-01-08T00:42:18.599Z,29.53
2019-01-08T00:42:54.312Z,31.30
2019-01-08T00:43:29.764Z,32.23
2019-01-08T00:44:05.172Z,31.87
2019-01-08T00:44:40.583Z,32.97
2019-01-08T00:45:15.977Z,30.70
2019-01-08T00:45:51.407Z,31.90
2019-01-08T00:46:26.856Z,30.50
2019-01-08T00:47:02.574Z,31.80
2019-01-08T00:47:38.582Z,30.03
2019-01-08T00:48:13.986Z,32.23
2019-01-08T00:48:49.393Z,30.23
2019-01-08T00:49:26.360Z,29.70
2019-01-08T00:50:01.864Z,30.13
2019-01-08T00:50:37.374Z,28.53
2019-01-08T00:51:12.816Z,28.10
2019-01-08T00:51:48.497Z,28.23
2019-01-08T00:52:24.008Z,30.93
2019-01-08T00:52:59.730Z,28.73
2019-01-08T00:53:35.138Z,30.13
2019-01-08T00:54:11.059Z,28.80
2019-01-08T00:54:46.459Z,26.90
2019-01-08T00:55:21.850Z,28.17
2019-01-08T00:55:57.280Z,29.07
2019-01-08T00:56:32.779Z,26.87
2019-01-08T00:57:08.169Z,29.87
2019-01-08T00:57:43.869Z,27.07
2019-01-08T00:58:20.397Z,27.87
2019-01-08T00:58:55.794Z,28.63
2019-01-08T00:59:31.345Z,27.10
2019-01-08T01:00:07.239Z,28.03
2019-01-08T01:00:43.002Z,27.90
2019-01-08T01:01:18.537Z,26.53
2019-01-08T01:01:54.213Z,28.43
2019-01-08T01:02:29.881Z,27.00
2019-01-08T01:03:05.645Z,27.60
2019-01-08T01:03:42.351Z,27.03
2019-01-08T01:04:17.775Z,25.10
2019-01-08T01:04:53.745Z,27.23
2019-01-08T01:05:29.184Z,28.23
2019-01-08T01:06:04.661Z,27.47
2019-01-08T01:06:40.130Z,26.37
2019-01-08T01:07:15.545Z,28.60
2019-01-08T01:07:51.706Z,27.77
2019-01-08T01:08:27.418Z,29.10
2019-01-08T01:09:02.904Z,26.67
2019-01-08T01:09:38.416Z,26.33
2019-01-08T01:10:13.834Z,26.87
2019-01-08T01:10:49.273Z,27.30
2019-01-08T01:11:25.074Z,28.33
2019-01-08T01:12:00.600Z,28.03
2019-01-08T01:12:36.093Z,26.83
2019-01-08T01:13:11.830Z,27.67
2019-01-08T01:13:47.270Z,28.13
2019-01-08T01:14:23.027Z,28.50
2019-01-08T01:14:59.004Z,27.47
2019-01-08T01:15:34.449Z,28.10
2019-01-08T01:16:09.986Z,25.73
2019-01-08T01:16:45.435Z,27.00
2019-01-08T01:17:21.242Z,25.83
2019-01-08T01:17:57.286Z,26.70
2019-01-08T01:18:32.831Z,27.03
2019-01-08T01:19:08.264Z,27.60
2019-01-08T01:19:43.758Z,25.77
2019-01-08T01:20:19.172Z,26.63
2019-01-08T01:20:54.583Z,27.70
2019-01-08T01:21:30.089Z,27.80
2019-01-08T01:22:05.566Z,27.93
2019-01-08T01:22:40.964Z,27.27
2019-01-08T01:23:16.648Z,26.80
2019-01-08T01:23:52.641Z,27.27
2019-01-08T01:24:28.331Z,26.53
2019-01-08T01:25:04.098Z,27.77
2019-01-08T01:25:39.543Z,25.63
2019-01-08T01:26:15.494Z,26.00
2019-01-08T01:26:51.055Z,25.80
2019-01-08T01:27:26.755Z,26.67
2019-01-08T01:28:02.246Z,26.23
2019-01-08T01:28:38.235Z,25.73
2019-01-08T01:29:16.676Z,26.07
2019-01-08T01:29:52.675Z,24.83
2019-01-08T01:30:28.108Z,24.57
2019-01-08T01:31:03.570Z,25.27
2019-01-08T01:31:39.077Z,25.13
2019-01-08T01:32:14.734Z,24.43
2019-01-08T01:32:50.189Z,25.00
2019-01-08T01:33:25.603Z,25.73
2019-01-08T01:34:01.081Z,25.50
2019-01-08T01:34:36.911Z,25.30
2019-01-08T01:35:12.571Z,24.50
2019-01-08T01:35:48.054Z,25.13
2019-01-08T01:36:23.711Z,24.43
2019-01-08T01:36:59.181Z,23.57
2019-01-08T01:37:34.722Z,24.67
2019-01-08T01:38:10.143Z,25.67
2019-01-08T01:38:45.540Z,24.87
2019-01-08T01:39:21.051Z,28.37
2019-01-08T01:39:56.499Z,27.87
2019-01-08T01:40:32.037Z,26.40
2019-01-08T01:41:07.581Z,24.83
2019-01-08T01:41:43.018Z,26.40
2019-01-08T01:42:18.734Z,26.00
2019-01-08T01:42:54.146Z,26.33
2019-01-08T01:43:29.594Z,25.30
2019-01-08T01:44:05.040Z,26.33
2019-01-08T01:44:40.755Z,27.20
2019-01-08T01:45:16.160Z,27.17
2019-01-08T01:45:52.162Z,26.90
2019-01-08T01:46:27.566Z,25.87
2019-01-08T01:47:03.040Z,28.30
2019-01-08T01:47:38.781Z,27.33
2019-01-08T01:48:14.454Z,25.63
2019-01-08T01:48:49.869Z,26.83
2019-01-08T01:49:25.282Z,28.00
2019-01-08T01:50:00.713Z,28.77
2019-01-08T01:50:36.402Z,26.43
2019-01-08T01:51:11.815Z,26.73
2019-01-08T01:51:47.254Z,27.97
2019-01-08T01:52:22.970Z,25.87
2019-01-08T01:52:58.389Z,27.17
2019-01-08T01:53:33.807Z,27.47
2019-01-08T01:54:09.252Z,25.97
2019-01-08T01:54:45.224Z,26.43
2019-01-08T01:55:20.877Z,26.10
2019-01-08T01:55:56.539Z,27.43
2019-01-08T01:56:31.966Z,26.07
2019-01-08T01:57:07.479Z,27.63
2019-01-08T01:57:43.186Z,26.57
2019-01-08T01:58:18.571Z,26.47
2019-01-08T01:58:54.220Z,26.80
2019-01-08T01:59:29.930Z,27.53
2019-01-08T02:00:05.548Z,25.83
2019-01-08T02:00:41.273Z,24.97
2019-01-08T02:01:16.928Z,24.67
2019-01-08T02:01:52.336Z,25.13
2019-01-08T02:02:27.771Z,23.67
2019-01-08T02:03:03.232Z,24.33
2019-01-08T02:03:38.928Z,25.33
2019-01-08T02:04:14.720Z,25.97
2019-01-08T02:04:50.127Z,25.50
2019-01-08T02:05:25.517Z,25.13
2019-01-08T02:06:01.292Z,25.50
2019-01-08T02:06:36.720Z,23.87
2019-01-08T02:07:12.215Z,24.70
2019-01-08T02:07:47.668Z,24.83
2019-01-08T02:08:23.689Z,25.27
2019-01-08T02:08:59.598Z,25.30
2019-01-08T02:09:35.369Z,25.40
2019-01-08T02:10:10.773Z,24.40
2019-01-08T02:10:46.192Z,25.70
2019-01-08T02:11:21.604Z,24.37
2019-01-08T02:11:57.568Z,23.83
2019-01-08T02:12:33.398Z,24.03
2019-01-08T02:13:08.838Z,24.00
2019-01-08T02:13:44.585Z,25.90
2019-01-08T02:14:19.975Z,24.87
2019-01-08T02:14:55.378Z,25.33
2019-01-08T02:15:30.853Z,25.07
2019-01-08T02:16:06.384Z,24.30
2019-01-08T02:16:41.794Z,24.70
2019-01-08T02:17:17.257Z,25.20
2019-01-08T02:17:52.746Z,25.43
2019-01-08T02:18:28.483Z,23.77
2019-01-08T02:19:04.472Z,25.93
2019-01-08T02:19:39.871Z,23.73
2019-01-08T02:20:15.291Z,24.53
2019-01-08T02:20:50.749Z,25.87
2019-01-08T02:21:26.139Z,23.90
2019-01-08T02:22:01.604Z,25.27
2019-01-08T02:22:37.031Z,24.23
2019-01-08T02:23:12.492Z,24.90
2019-01-08T02:23:47.873Z,26.30
2019-01-08T02:24:23.276Z,25.20
2019-01-08T02:24:58.729Z,24.37
2019-01-08T02:25:34.137Z,22.97
2019-01-08T02:26:09.542Z,24.07
2019-01-08T02:26:44.934Z,24.63
2019-01-08T02:27:20.353Z,24.87
2019-01-08T02:27:55.999Z,24.40
2019-01-08T02:28:31.677Z,24.70
2019-01-08T02:29:07.151Z,24.33
2019-01-08T02:29:42.832Z,25.50
2019-01-08T02:30:18.246Z,24.70
2019-01-08T02:30:54.076Z,23.40
2019-01-08T02:31:29.468Z,23.63
2019-01-08T02:32:05.143Z,26.10
2019-01-08T02:32:40.791Z,25.43
2019-01-08T02:33:16.204Z,23.73
2019-01-08T02:33:51.986Z,24.17
2019-01-08T02:34:27.870Z,24.00
2019-01-08T02:35:03.919Z,24.63
2019-01-08T02:35:39.606Z,25.53
2019-01-08T02:36:15.006Z,25.80
2019-01-08T02:36:50.405Z,23.93
2019-01-08T02:37:25.799Z,24.77
2019-01-08T02:38:01.568Z,24.33
2019-01-08T02:38:37.036Z,23.53
2019-01-08T02:39:12.474Z,23.47
2019-01-08T02:39:48.438Z,22.60
2019-01-08T02:40:24.127Z,24.37
2019-01-08T02:40:59.840Z,24.13
2019-01-08T02:41:35.471Z,23.57
2019-01-08T02:42:11.150Z,23.73
2019-01-08T02:42:46.841Z,24.03
2019-01-08T02:43:22.510Z,23.50
2019-01-08T02:43:58.347Z,25.33
2019-01-08T02:44:34.066Z,25.63
2019-01-08T02:45:09.628Z,24.60
2019-01-08T02:45:45.347Z,24.10
2019-01-08T02:46:20.854Z,24.43
2019-01-08T02:46:56.409Z,24.30
2019-01-08T02:47:32.002Z,24.13
2019-01-08T02:48:07.462Z,24.27
2019-01-08T02:48:43.755Z,24.23
2019-01-08T02:49:19.775Z,24.53
2019-01-08T02:49:55.192Z,23.77
2019-01-08T02:50:30.633Z,25.03
2019-01-08T02:51:06.054Z,22.87
2019-01-08T02:51:41.843Z,25.83
2019-01-08T02:52:17.277Z,25.73
2019-01-08T02:52:52.943Z,24.67
2019-01-08T02:53:28.658Z,25.97
2019-01-08T02:54:04.088Z,23.90
2019-01-08T02:54:39.658Z,26.17
2019-01-08T02:55:15.012Z,25.13
2019-01-08T02:55:50.453Z,23.60
2019-01-08T02:56:26.098Z,23.97
2019-01-08T02:57:01.808Z,23.40
2019-01-08T02:57:37.518Z,24.63
2019-01-08T02:58:13.179Z,23.93
2019-01-08T02:58:48.853Z,22.33
2019-01-08T02:59:25.438Z,23.30
2019-01-08T03:00:01.294Z,23.40
2019-01-08T03:00:37.010Z,24.03
2019-01-08T03:01:12.416Z,23.60
2019-01-08T03:01:48.055Z,22.53
2019-01-08T03:02:23.469Z,22.20
2019-01-08T03:02:59.188Z,23.50
2019-01-08T03:03:34.893Z,21.90
2019-01-08T03:04:10.320Z,22.67
2019-01-08T03:04:45.711Z,22.70
2019-01-08T03:05:21.215Z,21.37
2019-01-08T03:05:56.934Z,21.63
2019-01-08T03:06:32.727Z,21.30
2019-01-08T03:07:08.816Z,21.50
2019-01-08T03:07:44.304Z,20.20
2019-01-08T03:08:19.719Z,21.47
2019-01-08T03:08:55.127Z,19.00
2019-01-08T03:09:33.350Z,20.63
2019-01-08T03:10:09.061Z,20.47
2019-01-08T03:10:44.843Z,22.00
2019-01-08T03:11:20.254Z,19.43
2019-01-08T03:11:55.990Z,21.27
2019-01-08T03:12:31.478Z,21.70
2019-01-08T03:13:07.249Z,20.93
2019-01-08T03:13:42.667Z,20.30
2019-01-08T03:14:18.314Z,21.00
2019-01-08T03:14:54.023Z,18.67
2019-01-08T03:15:29.721Z,20.00
2019-01-08T03:16:05.238Z,19.90
2019-01-08T03:16:41.250Z,19.00
2019-01-08T03:17:16.918Z,18.87
2019-01-08T03:17:52.330Z,17.00
2019-01-08T03:18:27.737Z,17.47
2019-01-08T03:19:03.276Z,16.80
2019-01-08T03:19:38.909Z,18.40
2019-01-08T03:20:14.361Z,16.90
2019-01-08T03:20:49.875Z,18.40
2019-01-08T03:21:25.277Z,16.43
2019-01-08T03:22:00.956Z,16.57
2019-01-08T03:22:36.375Z,16.63
2019-01-08T03:23:12.028Z,16.53
2019-01-08T03:23:47.673Z,17.20
2019-01-08T03:24:23.065Z,16.90
2019-01-08T03:24:58.497Z,14.87
2019-01-08T03:25:33.963Z,16.10
2019-01-08T03:26:09.412Z,16.33
2019-01-08T03:26:44.810Z,15.83
2019-01-08T03:27:20.472Z,16.33
2019-01-08T03:27:56.454Z,17.83
2019-01-08T03:28:32.410Z,16.90
2019-01-08T03:29:08.124Z,16.80
2019-01-08T03:29:43.576Z,17.43
2019-01-08T03:30:19.235Z,17.30
2019-01-08T03:30:54.648Z,17.73
2019-01-08T03:31:30.351Z,16.37
2019-01-08T03:32:05.869Z,15.50
2019-01-08T03:32:41.275Z,15.10
2019-01-08T03:33:16.670Z,16.17
2019-01-08T03:33:52.099Z,16.90
2019-01-08T03:34:27.846Z,16.40
2019-01-08T03:35:03.255Z,16.10
2019-01-08T03:35:38.671Z,15.60
2019-01-08T03:36:14.258Z,15.40
2019-01-08T03:36:49.924Z,15.53
2019-01-08T03:37:25.331Z,15.07
2019-01-08T03:38:00.761Z,15.77
2019-01-08T03:38:36.315Z,15.77
2019-01-08T03:39:11.987Z,14.47
2019-01-08T03:39:47.394Z,12.13
2019-01-08T03:40:23.589Z,12.53
2019-01-08T03:40:59.294Z,13.83
2019-01-08T03:41:34.969Z,12.50
2019-01-08T03:42:10.380Z,13.03
2019-01-08T03:42:46.069Z,13.30
2019-01-08T03:43:21.588Z,12.10
2019-01-08T03:43:57.200Z,11.63
2019-01-08T03:44:32.613Z,11.60
2019-01-08T03:45:08.060Z,10.10
2019-01-08T03:45:43.457Z,8.53
2019-01-08T03:46:19.186Z,9.10
2019-01-08T03:46:54.644Z,6.87
2019-01-08T03:47:30.067Z,6.13
2019-01-08T03:48:05.720Z,6.37
2019-01-08T03:48:41.382Z,6.27
2019-01-08T03:49:16.766Z,5.57
2019-01-08T03:49:52.169Z,5.10
2019-01-08T03:50:27.676Z,5.17
2019-01-08T03:51:03.396Z,4.53
2019-01-08T03:51:39.045Z,4.50
2019-01-08T03:52:14.461Z,4.00
2019-01-08T03:52:49.871Z,3.60
2019-01-08T03:53:25.374Z,4.20
2019-01-08T03:54:00.789Z,3.80
2019-01-08T03:54:36.923Z,3.23
2019-01-08T03:55:12.318Z,3.50
2019-01-08T03:55:47.947Z,3.37
2019-01-08T03:56:23.366Z,3.17
2019-01-08T03:56:58.790Z,3.13
2019-01-08T03:57:34.211Z,3.10
2019-01-08T03:58:09.855Z,3.20
2019-01-08T03:58:45.543Z,3.63
2019-01-08T03:59:20.929Z,3.20
2019-01-08T03:59:56.591Z,2.97
2019-01-08T04:00:32.279Z,2.90
2019-01-08T04:01:07.843Z,2.80
2019-01-08T04:01:43.517Z,2.90
2019-01-08T04:02:19.003Z,3.13
2019-01-08T04:02:54.717Z,2.77
2019-01-08T04:03:30.147Z,2.50
2019-01-08T04:04:05.662Z,2.77
2019-01-08T04:04:41.064Z,2.77
2019-01-08T04:05:16.582Z,2.30
2019-01-08T04:05:52.278Z,2.47
2019-01-08T04:06:27.958Z,2.60
2019-01-08T04:07:03.391Z,2.70
2019-01-08T04:07:38.837Z,2.67
2019-01-08T04:08:14.500Z,2.43
2019-01-08T04:08:49.896Z,2.50
2019-01-08T04:09:25.302Z,2.77
2019-01-08T04:10:00.746Z,2.70
2019-01-08T04:10:36.138Z,2.77
2019-01-08T04:11:11.559Z,2.63
2019-01-08T04:11:46.947Z,2.30
2019-01-08T04:12:22.351Z,2.40
2019-01-08T04:12:57.796Z,2.80
2019-01-08T04:13:33.189Z,2.30
2019-01-08T04:14:08.613Z,2.53
2019-01-08T04:14:44.034Z,2.40
2019-01-08T04:15:19.535Z,2.63
2019-01-08T04:15:54.926Z,2.23
2019-01-08T04:16:30.425Z,2.30
2019-01-08T04:17:05.876Z,2.40
2019-01-08T04:17:41.366Z,2.50
2019-01-08T04:18:16.754Z,2.47
2019-01-08T04:18:52.404Z,2.43
2019-01-08T04:19:27.819Z,2.07
2019-01-08T04:20:03.254Z,2.13
2019-01-08T04:20:38.745Z,2.13
2019-01-08T04:21:14.164Z,1.93
2019-01-08T04:21:49.601Z,2.00
2019-01-08T04:22:25.257Z,2.00
2019-01-08T04:23:00.793Z,1.87
2019-01-08T04:23:36.299Z,2.17
2019-01-08T04:24:11.715Z,1.80
2019-01-08T04:24:47.414Z,1.77
2019-01-08T04:25:22.800Z,1.70
2019-01-08T04:25:58.205Z,1.90
2019-01-08T04:26:33.704Z,2.07
2019-01-08T04:27:09.111Z,1.87
2019-01-08T04:27:44.535Z,1.93
2019-01-08T04:28:20.196Z,1.83
2019-01-08T04:28:55.851Z,2.07
2019-01-08T04:29:32.018Z,1.87
2019-01-08T04:30:08.068Z,1.77
2019-01-08T04:30:43.500Z,2.03
2019-01-08T04:31:19.151Z,1.57
2019-01-08T04:31:54.925Z,1.57
2019-01-08T04:32:30.626Z,1.50
2019-01-08T04:33:06.058Z,1.37
2019-01-08T04:33:41.715Z,1.60
2019-01-08T04:34:17.191Z,1.50
2019-01-08T04:34:52.852Z,1.60
2019-01-08T04:35:28.249Z,1.60
2019-01-08T04:36:03.756Z,1.63
2019-01-08T04:36:39.257Z,1.70
2019-01-08T04:37:14.938Z,1.50
2019-01-08T04:37:50.319Z,1.60
2019-01-08T04:38:25.797Z,1.50
2019-01-08T04:39:01.220Z,1.63
2019-01-08T04:39:36.662Z,1.60
2019-01-08T04:40:12.294Z,1.67
2019-01-08T04:40:47.712Z,1.73
2019-01-08T04:41:23.425Z,1.50
2019-01-08T04:41:58.896Z,1.80
2019-01-08T04:42:34.292Z,1.53
2019-01-08T04:43:09.671Z,1.80
2019-01-08T04:43:45.165Z,1.67
2019-01-08T04:44:20.848Z,2.10
2019-01-08T04:44:56.244Z,1.70
2019-01-08T04:45:32.212Z,1.60
2019-01-08T04:46:08.064Z,1.50
2019-01-08T04:46:43.755Z,1.87
2019-01-08T04:47:19.155Z,1.50
2019-01-08T04:47:54.869Z,2.00
2019-01-08T04:48:30.262Z,1.90
2019-01-08T04:49:06.197Z,1.33
2019-01-08T04:49:41.585Z,1.90
2019-01-08T04:50:17.258Z,1.73
2019-01-08T04:50:52.648Z,1.63
2019-01-08T04:51:28.078Z,1.60
2019-01-08T04:52:03.766Z,1.60
2019-01-08T04:52:39.217Z,2.03
2019-01-08T04:53:14.630Z,2.00
2019-01-08T04:53:50.271Z,1.77
2019-01-08T04:54:25.657Z,2.27
2019-01-08T04:55:01.213Z,2.17
2019-01-08T04:55:36.632Z,2.03
2019-01-08T04:56:12.145Z,1.80
2019-01-08T04:56:47.572Z,1.67
2019-01-08T04:57:22.972Z,2.10
2019-01-08T04:57:58.715Z,2.57
2019-01-08T04:58:34.126Z,1.40
2019-01-08T04:59:09.822Z,1.67
2019-01-08T04:59:45.206Z,1.83
2019-01-08T05:00:20.618Z,2.97
2019-01-08T05:00:56.595Z,2.07
2019-01-08T05:01:32.038Z,2.00
2019-01-08T05:02:07.386Z,1.93
2019-01-08T05:02:42.753Z,1.97
2019-01-08T05:03:18.139Z,2.03
2019-01-08T05:03:53.600Z,2.23
2019-01-08T05:04:29.290Z,2.13
2019-01-08T05:05:04.762Z,2.00
2019-01-08T05:05:40.444Z,2.47
2019-01-08T05:06:15.836Z,2.17
2019-01-08T05:06:51.280Z,1.70
2019-01-08T05:07:26.974Z,2.13
2019-01-08T05:08:02.405Z,1.87
2019-01-08T05:08:37.832Z,2.07
2019-01-08T05:09:16.467Z,1.70
2019-01-08T05:09:50.627Z,2.13
2019-01-08T05:10:26.339Z,1.73
2019-01-08T05:11:01.797Z,1.70
2019-01-08T05:11:37.922Z,2.03
2019-01-08T05:12:13.566Z,1.93
2019-01-08T05:12:49.238Z,2.13
2019-01-08T05:13:24.910Z,2.17
2019-01-08T05:14:00.334Z,1.67
2019-01-08T05:14:35.793Z,1.97
2019-01-08T05:15:11.276Z,2.40
2019-01-08T05:15:46.665Z,2.57
2019-01-08T05:16:22.066Z,2.40
2019-01-08T05:16:58.110Z,2.30
2019-01-08T05:17:33.651Z,2.20
2019-01-08T05:18:09.079Z,2.50
2019-01-08T05:18:44.483Z,1.87
2019-01-08T05:19:19.872Z,2.77
2019-01-08T05:19:55.521Z,2.20
2019-01-08T05:20:31.059Z,1.90
2019-01-08T05:21:06.512Z,2.17
2019-01-08T05:21:42.245Z,2.43
2019-01-08T05:22:17.682Z,2.77
2019-01-08T05:22:53.074Z,2.73
2019-01-08T05:23:28.504Z,2.03
2019-01-08T05:24:04.005Z,2.73
2019-01-08T05:24:39.445Z,1.93
2019-01-08T05:25:14.842Z,2.53
2019-01-08T05:25:50.566Z,2.10
2019-01-08T05:26:25.965Z,2.93
2019-01-08T05:27:01.419Z,2.47
2019-01-08T05:27:36.816Z,2.70
2019-01-08T05:28:12.220Z,2.37
2019-01-08T05:28:47.952Z,2.43
2019-01-08T05:29:23.609Z,2.50
2019-01-08T05:30:07.480Z,2.63
2019-01-08T05:30:36.330Z,2.47
2019-01-08T05:31:12.059Z,2.57
2019-01-08T05:31:47.767Z,2.47
2019-01-08T05:32:23.189Z,2.23
2019-01-08T05:32:58.582Z,2.43
2019-01-08T05:33:34.576Z,2.10
2019-01-08T05:34:10.252Z,2.53
2019-01-08T05:34:45.927Z,2.60
2019-01-08T05:35:21.326Z,2.67
2019-01-08T05:35:57.110Z,3.07
2019-01-08T05:36:32.828Z,2.33
2019-01-08T05:37:08.304Z,2.80
2019-01-08T05:37:43.742Z,2.30
2019-01-08T05:38:19.411Z,2.50
2019-01-08T05:38:54.796Z,2.47
2019-01-08T05:39:30.255Z,2.87
2019-01-08T05:40:05.940Z,2.90
2019-01-08T05:40:41.647Z,2.90
2019-01-08T05:41:17.055Z,3.27
2019-01-08T05:41:52.757Z,2.57
2019-01-08T05:42:28.504Z,2.20
2019-01-08T05:43:03.983Z,2.40
2019-01-08T05:43:39.412Z,3.17
2019-01-08T05:44:14.810Z,2.80
2019-01-08T05:44:50.203Z,2.73
2019-01-08T05:45:25.582Z,2.50
2019-01-08T05:46:01.340Z,2.70
2019-01-08T05:46:36.773Z,2.27
2019-01-08T05:47:12.209Z,2.70
2019-01-08T05:47:47.880Z,2.77
2019-01-08T05:48:23.575Z,2.40
2019-01-08T05:48:59.660Z,2.90
2019-01-08T05:49:35.342Z,3.00
2019-01-08T05:50:11.356Z,2.57
2019-01-08T05:50:47.336Z,2.57
2019-01-08T05:51:22.987Z,2.50
2019-01-08T05:51:58.383Z,2.57
2019-01-08T05:52:34.084Z,3.17
2019-01-08T05:53:09.469Z,2.43
2019-01-08T05:53:45.156Z,2.67
2019-01-08T05:54:21.124Z,2.73
2019-01-08T05:54:56.541Z,2.60
2019-01-08T05:55:31.974Z,2.50
2019-01-08T05:56:07.699Z,2.93
2019-01-08T05:56:43.361Z,2.80
2019-01-08T05:57:18.805Z,2.80
2019-01-08T05:57:54.514Z,2.67
2019-01-08T05:58:30.254Z,2.60
2019-01-08T05:59:05.742Z,2.30
2019-01-08T05:59:41.175Z,2.27
2019-01-08T06:00:16.842Z,2.60
2019-01-08T06:00:52.168Z,2.47
2019-01-08T06:01:27.643Z,2.50
2019-01-08T06:02:03.128Z,2.47
2019-01-08T06:02:38.563Z,2.73
2019-01-08T06:03:13.974Z,2.93
2019-01-08T06:03:49.698Z,3.07
2019-01-08T06:04:25.085Z,2.43
2019-01-08T06:05:00.841Z,2.77
2019-01-08T06:05:36.293Z,2.60
2019-01-08T06:06:11.682Z,2.90
2019-01-08T06:06:47.141Z,2.70
2019-01-08T06:07:22.529Z,2.83
2019-01-08T06:07:58.019Z,3.00
2019-01-08T06:08:33.718Z,2.90
2019-01-08T06:09:09.199Z,2.80
2019-01-08T06:09:44.614Z,2.23
2019-01-08T06:10:20.024Z,2.60
2019-01-08T06:10:55.438Z,3.10
2019-01-08T06:11:31.150Z,2.50
2019-01-08T06:12:06.679Z,3.13
2019-01-08T06:12:42.113Z,2.73
2019-01-08T06:13:17.598Z,2.43
2019-01-08T06:13:53.492Z,2.97
2019-01-08T06:14:28.961Z,2.93
2019-01-08T06:15:04.549Z,2.67
2019-01-08T06:15:39.960Z,2.83
2019-01-08T06:16:15.628Z,2.47
2019-01-08T06:16:51.115Z,2.93
2019-01-08T06:17:26.855Z,2.90
2019-01-08T06:18:02.327Z,3.03
2019-01-08T06:18:38.082Z,2.73
2019-01-08T06:19:13.502Z,2.53
2019-01-08T06:19:48.902Z,2.93
2019-01-08T06:20:24.594Z,2.93
2019-01-08T06:21:00.267Z,3.03
2019-01-08T06:21:35.746Z,2.70
2019-01-08T06:22:11.462Z,2.70
2019-01-08T06:22:46.888Z,3.03
2019-01-08T06:23:22.267Z,3.10
2019-01-08T06:23:57.698Z,2.97
2019-01-08T06:24:33.121Z,3.00
2019-01-08T06:25:08.653Z,3.07
2019-01-08T06:25:44.053Z,3.17
2019-01-08T06:26:19.437Z,3.17
2019-01-08T06:26:55.092Z,3.27
2019-01-08T06:27:30.918Z,2.97
2019-01-08T06:28:06.685Z,3.03
2019-01-08T06:28:42.347Z,3.07
2019-01-08T06:29:18.315Z,2.83
2019-01-08T06:29:54.012Z,2.67
2019-01-08T06:30:29.427Z,3.07
2019-01-08T06:31:05.209Z,2.80
2019-01-08T06:31:41.315Z,3.10
2019-01-08T06:32:17.322Z,3.13
2019-01-08T06:32:52.832Z,3.07
2019-01-08T06:33:28.325Z,3.07
2019-01-08T06:34:04.026Z,2.70
2019-01-08T06:34:40.129Z,2.70
2019-01-08T06:35:15.548Z,3.30
2019-01-08T06:35:51.152Z,3.30
2019-01-08T06:36:26.554Z,2.73
2019-01-08T06:37:02.033Z,3.20
2019-01-08T06:37:37.761Z,2.73
2019-01-08T06:38:13.169Z,2.93
2019-01-08T06:38:48.893Z,3.23
2019-01-08T06:39:24.381Z,3.13
2019-01-08T06:40:00.086Z,3.30
2019-01-08T06:40:35.538Z,3.40
2019-01-08T06:41:10.973Z,3.10
2019-01-08T06:41:46.371Z,3.50
2019-01-08T06:42:21.815Z,3.20
2019-01-08T06:42:57.241Z,3.33
2019-01-08T06:43:32.932Z,3.90
2019-01-08T06:44:08.365Z,3.97
2019-01-08T06:44:43.766Z,3.30
2019-01-08T06:45:19.153Z,3.30
2019-01-08T06:45:54.648Z,3.00
2019-01-08T06:46:30.372Z,3.83
2019-01-08T06:47:05.820Z,3.93
2019-01-08T06:47:41.250Z,3.50
2019-01-08T06:48:16.696Z,3.70
2019-01-08T06:48:52.108Z,3.93
2019-01-08T06:49:27.767Z,3.60
2019-01-08T06:50:03.190Z,4.17
2019-01-08T06:50:38.580Z,3.60
2019-01-08T06:51:13.978Z,3.90
2019-01-08T06:51:49.391Z,4.37
2019-01-08T06:52:24.811Z,3.73
2019-01-08T06:53:00.545Z,4.30
2019-01-08T06:53:36.352Z,4.13
2019-01-08T06:54:11.994Z,3.90
2019-01-08T06:54:47.655Z,3.73
2019-01-08T06:55:23.316Z,4.00
2019-01-08T06:55:58.718Z,3.87
2019-01-08T06:56:34.143Z,4.10
2019-01-08T06:57:09.550Z,3.70
2019-01-08T06:57:44.949Z,3.93
2019-01-08T06:58:20.396Z,4.30
2019-01-08T06:58:55.876Z,4.13
2019-01-08T06:59:31.611Z,4.30
2019-01-08T07:00:08.015Z,3.50
2019-01-08T07:00:43.719Z,3.80
2019-01-08T07:01:19.122Z,3.93
2019-01-08T07:01:55.117Z,3.40
2019-01-08T07:02:31.220Z,4.13
2019-01-08T07:03:07.227Z,3.87
2019-01-08T07:03:42.651Z,4.03
2019-01-08T07:04:18.325Z,4.33
2019-01-08T07:04:53.812Z,3.73
2019-01-08T07:05:29.336Z,3.83
2019-01-08T07:06:04.766Z,4.03
2019-01-08T07:06:40.414Z,3.27
2019-01-08T07:07:15.798Z,3.70
2019-01-08T07:07:51.205Z,3.93
2019-01-08T07:08:26.613Z,3.70
2019-01-08T07:09:02.141Z,3.30
2019-01-08T07:09:37.579Z,3.37
2019-01-08T07:10:12.984Z,3.53
2019-01-08T07:10:48.643Z,3.33
2019-01-08T07:11:24.617Z,4.30
2019-01-08T07:12:00.059Z,3.20
2019-01-08T07:12:35.786Z,4.03
2019-01-08T07:13:11.194Z,4.23
2019-01-08T07:13:46.947Z,3.80
2019-01-08T07:14:22.899Z,3.87
2019-01-08T07:14:58.650Z,3.73
2019-01-08T07:15:34.104Z,3.53
2019-01-08T07:16:09.791Z,3.63
2019-01-08T07:16:45.446Z,3.87
2019-01-08T07:17:21.109Z,3.70
2019-01-08T07:17:56.791Z,3.43
2019-01-08T07:18:32.244Z,3.53
2019-01-08T07:19:07.676Z,3.67
2019-01-08T07:19:43.094Z,3.20
2019-01-08T07:20:18.768Z,3.67
2019-01-08T07:20:54.183Z,4.17
2019-01-08T07:21:29.604Z,3.77
2019-01-08T07:22:05.033Z,3.30
2019-01-08T07:22:40.989Z,4.23
2019-01-08T07:23:16.809Z,3.90
2019-01-08T07:23:52.225Z,3.60
2019-01-08T07:24:27.620Z,4.00
2019-01-08T07:25:03.052Z,3.87
2019-01-08T07:25:42.225Z,4.10
2019-01-08T07:26:15.817Z,4.13
2019-01-08T07:26:51.224Z,3.53
2019-01-08T07:27:26.614Z,3.80
2019-01-08T07:28:03.024Z,4.20
2019-01-08T07:28:38.473Z,3.60
2019-01-08T07:29:13.893Z,3.70
2019-01-08T07:29:49.558Z,3.50
2019-01-08T07:30:24.938Z,3.20
2019-01-08T07:31:00.439Z,4.00
2019-01-08T07:31:35.889Z,3.83
2019-01-08T07:32:11.570Z,3.93
2019-01-08T07:32:46.993Z,3.87
2019-01-08T07:33:22.679Z,3.50
2019-01-08T07:33:58.147Z,2.77
2019-01-08T07:34:33.926Z,3.77
2019-01-08T07:35:09.585Z,3.27
2019-01-08T07:35:44.997Z,4.07
2019-01-08T07:36:20.394Z,3.90
2019-01-08T07:36:55.822Z,3.50
2019-01-08T07:37:31.374Z,3.33
2019-01-08T07:38:07.076Z,3.60
2019-01-08T07:38:42.788Z,3.80
2019-01-08T07:39:18.232Z,3.13
2019-01-08T07:39:53.720Z,3.63
2019-01-08T07:40:29.245Z,3.80
2019-01-08T07:41:04.816Z,3.40
2019-01-08T07:41:40.258Z,3.20
2019-01-08T07:42:15.773Z,3.37
2019-01-08T07:42:51.430Z,3.37
2019-01-08T07:43:26.848Z,3.53
2019-01-08T07:44:02.912Z,3.87
2019-01-08T07:44:38.338Z,3.20
2019-01-08T07:45:14.023Z,3.73
2019-01-08T07:45:49.385Z,3.30